Newcomb, Maryland
Current Conditions -  °F | °C
As of 11:18 PM on Tuesday 27 Jan 2015 (Local Time) from KESN Reporting Station
Clear Clear  
Wind Chill: 20°   Ceiling: Unl
Heat Index: 31°   Visibility: 10mi
Dew Point: 18°   Wind: 15mph
Humidity: 58%   Direction: 350°N
Pressure: 29.94"   Gusts: 23mph
Location:  38.75°N, 76.18°W
Report Text: KESN 280418Z AUTO 35013G20KT 10SM CLR 00/M08 A2994 RMK AO2 T10051078
Loading
Personal Weather Stations






























Interactive Weather Map New forecast layout! Learn more

10-Day Weather Forecast

Advertisements
Track Severe Weather on mobile